createdAt,value
2022-12-25T00:00:36.441Z,10.88
2022-12-25T00:03:02.751Z,11.57
2022-12-25T00:05:28.953Z,10.80
2022-12-25T00:07:55.098Z,10.98
2022-12-25T00:10:21.202Z,10.75
2022-12-25T00:12:47.375Z,10.43
2022-12-25T00:15:13.515Z,10.15
2022-12-25T00:17:39.729Z,9.70
2022-12-25T00:20:06.458Z,10.73
2022-12-25T00:22:32.648Z,10.07
2022-12-25T00:24:58.759Z,10.90
2022-12-25T00:27:24.881Z,10.48
2022-12-25T00:29:50.996Z,9.98
2022-12-25T00:32:17.120Z,9.85
2022-12-25T00:34:43.241Z,9.30
2022-12-25T00:37:09.358Z,10.35
2022-12-25T00:39:35.485Z,9.75
2022-12-25T00:42:19.765Z,9.98
2022-12-25T00:44:47.123Z,9.73
2022-12-25T00:47:13.316Z,9.18
2022-12-25T00:49:39.473Z,12.55
2022-12-25T00:52:05.898Z,10.93
2022-12-25T00:54:32.019Z,12.43
2022-12-25T00:56:58.292Z,9.30
2022-12-25T00:59:24.540Z,10.77
2022-12-25T01:01:51.044Z,11.73
2022-12-25T01:04:17.290Z,11.55
2022-12-25T01:06:43.450Z,9.13
2022-12-25T01:09:28.264Z,9.00
2022-12-25T01:11:54.391Z,10.82
2022-12-25T01:14:20.514Z,10.20
2022-12-25T01:16:46.690Z,9.38
2022-12-25T01:19:13.113Z,10.48
2022-12-25T01:21:39.327Z,12.02
2022-12-25T01:24:05.791Z,12.68
2022-12-25T01:26:31.921Z,11.60
2022-12-25T01:28:58.024Z,10.52
2022-12-25T01:31:24.858Z,11.02
2022-12-25T01:33:51.588Z,11.15
2022-12-25T01:36:22.803Z,11.77
2022-12-25T01:38:49.641Z,11.73
2022-12-25T01:41:17.986Z,12.68
2022-12-25T01:43:59.340Z,13.32
2022-12-25T01:46:25.548Z,13.27
2022-12-25T01:48:53.360Z,11.63
2022-12-25T01:51:28.546Z,12.65
2022-12-25T01:53:57.880Z,10.55
2022-12-25T01:56:26.455Z,11.55
2022-12-25T01:58:54.338Z,11.95
2022-12-25T02:01:20.622Z,12.20
2022-12-25T02:03:46.820Z,13.75
2022-12-25T02:06:12.941Z,11.30
2022-12-25T02:08:40.404Z,12.35
2022-12-25T02:11:28.785Z,15.25
2022-12-25T02:13:55.294Z,14.18
2022-12-25T02:16:31.236Z,13.13
2022-12-25T02:19:09.895Z,15.43
2022-12-25T02:21:55.595Z,14.23
2022-12-25T02:24:43.245Z,13.30
2022-12-25T02:27:37.180Z,18.00
2022-12-25T02:30:06.816Z,14.27
2022-12-25T02:32:42.843Z,19.23
2022-12-25T02:35:18.356Z,17.08
2022-12-25T02:40:28.699Z,14.30
2022-12-25T02:43:31.710Z,14.30
2022-12-25T02:46:24.521Z,11.85
2022-12-25T02:49:16.495Z,13.43
2022-12-25T02:52:06.374Z,13.75
2022-12-25T02:54:59.309Z,13.82
2022-12-25T02:57:48.623Z,13.90
2022-12-25T03:00:33.901Z,15.40
2022-12-25T03:03:23.359Z,15.75
2022-12-25T03:06:10.480Z,13.55
2022-12-25T03:08:41.863Z,18.60
2022-12-25T03:11:29.011Z,14.38
2022-12-25T03:14:18.831Z,16.70
2022-12-25T03:16:53.714Z,12.80
2022-12-25T03:19:47.626Z,15.30
2022-12-25T03:22:37.863Z,12.45
2022-12-25T03:25:22.724Z,12.82
2022-12-25T03:27:52.642Z,11.45
2022-12-25T03:30:37.824Z,13.88
2022-12-25T03:33:43.182Z,11.45
2022-12-25T03:36:06.387Z,11.77
2022-12-25T03:38:50.746Z,11.30
2022-12-25T03:41:44.752Z,11.05
2022-12-25T03:44:43.950Z,12.27
2022-12-25T03:47:41.317Z,12.18
2022-12-25T03:50:37.979Z,12.05
2022-12-25T03:53:37.455Z,11.90
2022-12-25T03:56:23.436Z,11.80
2022-12-25T03:59:16.505Z,10.57
2022-12-25T04:02:04.107Z,11.25
2022-12-25T04:04:49.015Z,12.13
2022-12-25T04:07:33.783Z,10.40
2022-12-25T04:10:18.733Z,11.10
2022-12-25T04:13:03.271Z,12.77
2022-12-25T04:15:48.191Z,9.27
2022-12-25T04:18:33.291Z,11.00
2022-12-25T04:21:17.754Z,11.20
2022-12-25T04:24:02.714Z,12.48
2022-12-25T04:26:47.454Z,11.20
2022-12-25T04:29:32.249Z,9.88
2022-12-25T04:32:16.760Z,9.15
2022-12-25T04:35:01.569Z,9.05
2022-12-25T04:37:27.706Z,10.18
2022-12-25T04:39:53.844Z,9.77
2022-12-25T04:42:19.984Z,10.52
2022-12-25T04:44:46.118Z,10.93
2022-12-25T04:47:12.965Z,10.05
2022-12-25T04:49:39.413Z,10.35
2022-12-25T04:52:05.570Z,10.02
2022-12-25T04:54:31.776Z,11.20
2022-12-25T04:56:57.927Z,10.55
2022-12-25T04:59:24.107Z,11.90
2022-12-25T05:01:50.348Z,10.98
2022-12-25T07:59:19.728Z,6.45
2022-12-25T08:01:46.488Z,7.72
2022-12-25T08:04:12.870Z,7.43
2022-12-25T08:06:39.007Z,9.32
2022-12-25T08:09:08.302Z,11.27
2022-12-25T08:11:34.437Z,8.02
2022-12-25T08:14:00.812Z,8.27
2022-12-25T08:16:26.963Z,10.40
2022-12-25T08:18:53.470Z,9.07
2022-12-25T08:21:19.602Z,8.70
2022-12-25T08:23:47.410Z,7.75
2022-12-25T08:26:16.500Z,8.07
2022-12-25T08:28:43.018Z,7.22
2022-12-25T08:31:21.553Z,8.55
2022-12-25T08:33:49.039Z,7.95
2022-12-25T08:36:15.915Z,7.78
2022-12-25T08:38:42.171Z,8.02
2022-12-25T08:41:09.126Z,8.52
2022-12-25T08:43:35.316Z,7.75
2022-12-25T08:46:01.567Z,8.45
2022-12-25T08:48:28.094Z,7.78
2022-12-25T08:50:54.784Z,7.38
2022-12-25T08:53:21.908Z,8.68
2022-12-25T08:55:48.110Z,9.35
2022-12-25T08:58:17.069Z,7.88
2022-12-25T09:00:43.492Z,7.93
2022-12-25T09:03:09.684Z,7.68
2022-12-25T09:05:36.916Z,7.88
2022-12-25T09:08:03.404Z,7.90
2022-12-25T09:10:30.055Z,7.85
2022-12-25T09:12:56.242Z,7.63
2022-12-25T09:15:22.401Z,7.25
2022-12-25T09:17:48.523Z,7.38
2022-12-25T09:20:14.750Z,9.23
2022-12-25T09:22:40.999Z,9.13
2022-12-25T09:25:07.344Z,10.57
2022-12-25T09:27:33.468Z,9.20
2022-12-25T09:29:59.595Z,8.27
2022-12-25T09:32:25.802Z,12.10
2022-12-25T09:34:51.957Z,12.00
2022-12-25T09:37:18.097Z,10.00
2022-12-25T09:39:46.478Z,8.65
2022-12-25T09:42:21.531Z,9.75
2022-12-25T09:44:51.603Z,8.85
2022-12-25T09:47:21.890Z,8.43
2022-12-25T09:49:57.630Z,9.48
2022-12-25T09:52:30.398Z,7.35
2022-12-25T09:55:19.598Z,8.38
2022-12-25T09:57:54.184Z,7.70
2022-12-25T10:00:22.636Z,7.43
2022-12-25T10:03:13.163Z,7.07
2022-12-25T10:06:11.007Z,7.57
2022-12-25T10:09:07.974Z,7.28
2022-12-25T10:12:00.379Z,6.72
2022-12-25T10:14:45.236Z,7.90
2022-12-25T10:17:24.703Z,8.18
2022-12-25T10:20:14.495Z,7.32
2022-12-25T10:22:54.345Z,7.03
2022-12-25T10:25:24.158Z,10.07
2022-12-25T10:28:11.787Z,8.55
2022-12-25T10:30:40.028Z,7.40
2022-12-25T10:33:06.130Z,7.82
2022-12-25T10:35:32.988Z,7.82
2022-12-25T10:38:02.793Z,9.52
2022-12-25T10:40:46.003Z,8.95
2022-12-25T10:43:18.327Z,9.00
2022-12-25T10:45:49.528Z,8.98
2022-12-25T10:48:22.731Z,8.88
2022-12-25T10:50:49.573Z,9.15
2022-12-25T10:53:25.617Z,8.82
2022-12-25T10:56:03.409Z,8.13
2022-12-25T10:58:30.451Z,12.02
2022-12-25T11:01:06.793Z,7.90
2022-12-25T11:03:35.310Z,8.60
2022-12-25T11:06:03.003Z,8.40
2022-12-25T11:08:33.126Z,8.73
2022-12-25T11:11:06.600Z,10.82
2022-12-25T11:13:36.203Z,8.73
2022-12-25T11:16:05.418Z,7.72
2022-12-25T11:18:47.810Z,8.38
2022-12-25T11:21:26.451Z,7.65
2022-12-25T11:24:03.664Z,9.50
2022-12-25T11:26:35.423Z,8.57
2022-12-25T11:29:01.921Z,8.63
2022-12-25T11:31:37.288Z,8.05
2022-12-25T11:36:47.132Z,8.40
2022-12-25T11:39:42.598Z,8.48
2022-12-25T11:42:22.661Z,12.55
2022-12-25T11:45:10.341Z,8.63
2022-12-25T11:47:48.837Z,8.60
2022-12-25T11:50:54.581Z,7.55
2022-12-25T11:53:30.566Z,8.20
2022-12-25T11:56:02.594Z,7.78
2022-12-25T11:58:33.573Z,10.30
2022-12-25T12:01:04.983Z,8.90
2022-12-25T12:03:40.493Z,8.60
2022-12-25T12:06:29.996Z,9.27
2022-12-25T12:09:12.139Z,8.57
2022-12-25T12:11:46.680Z,8.80
2022-12-25T12:14:45.468Z,9.60
2022-12-25T12:17:13.518Z,7.72
2022-12-25T12:19:39.635Z,7.93
2022-12-25T12:22:06.053Z,8.38
2022-12-25T12:24:42.067Z,8.80
2022-12-25T12:27:27.906Z,8.30
2022-12-25T12:32:34.018Z,9.35
2022-12-25T12:35:05.708Z,8.50
2022-12-25T12:37:35.733Z,8.90
2022-12-25T12:40:02.823Z,8.18
2022-12-25T12:42:34.802Z,8.95
2022-12-25T12:45:11.051Z,9.32
2022-12-25T12:47:38.922Z,8.73
2022-12-25T12:50:05.993Z,8.95
2022-12-25T12:52:35.869Z,8.13
2022-12-25T12:55:08.309Z,7.80
2022-12-25T12:57:39.686Z,7.90
2022-12-25T13:00:11.058Z,8.65
2022-12-25T13:02:50.125Z,8.88
2022-12-25T13:05:33.982Z,7.75
2022-12-25T13:08:31.450Z,9.02
2022-12-25T13:11:21.203Z,8.60
2022-12-25T13:13:49.706Z,10.43
2022-12-25T13:16:26.721Z,8.77
2022-12-25T13:18:54.178Z,8.75
2022-12-25T13:21:29.113Z,8.60
2022-12-25T13:24:01.344Z,8.48
2022-12-25T13:26:28.795Z,8.93
2022-12-25T13:28:56.222Z,9.48
2022-12-25T13:31:25.363Z,9.77
2022-12-25T13:33:55.382Z,10.50
2022-12-25T13:36:21.606Z,11.18
2022-12-25T13:38:50.930Z,9.27
2022-12-25T13:41:41.845Z,9.10
2022-12-25T13:44:20.553Z,9.55
2022-12-25T13:46:47.191Z,9.68
2022-12-25T13:49:18.728Z,9.50
2022-12-25T13:51:46.318Z,9.77
2022-12-25T13:54:14.750Z,8.38
2022-12-25T13:56:55.312Z,9.32
2022-12-25T13:59:24.658Z,8.95
2022-12-25T14:01:52.297Z,9.43
2022-12-25T14:04:24.501Z,9.27
2022-12-25T14:06:52.408Z,10.50
2022-12-25T14:09:19.578Z,9.98
2022-12-25T14:11:51.503Z,9.75
2022-12-25T14:14:25.747Z,9.82
2022-12-25T14:16:56.471Z,11.25
2022-12-25T14:19:29.080Z,10.68
2022-12-25T14:22:01.724Z,10.88
2022-12-25T14:24:30.128Z,12.32
2022-12-25T14:27:02.012Z,11.65
2022-12-25T14:29:43.177Z,11.13
2022-12-25T14:32:16.141Z,10.93
2022-12-25T14:34:43.982Z,11.23
2022-12-25T14:37:16.215Z,11.50
2022-12-25T14:39:47.158Z,11.13
2022-12-25T14:42:22.390Z,10.95
2022-12-25T14:44:58.693Z,11.65
2022-12-25T14:47:25.475Z,12.07
2022-12-25T14:49:53.753Z,10.40
2022-12-25T14:52:25.442Z,10.38
2022-12-25T14:54:59.481Z,11.43
2022-12-25T14:57:29.512Z,10.27
2022-12-25T15:00:07.684Z,10.88
2022-12-25T15:02:40.607Z,10.98
2022-12-25T15:05:25.036Z,10.80
2022-12-25T15:08:17.916Z,10.73
2022-12-25T15:10:59.605Z,11.05
2022-12-25T15:13:27.912Z,11.02
2022-12-25T15:16:06.432Z,10.75
2022-12-25T15:18:38.235Z,11.65
2022-12-25T15:21:04.489Z,11.77
2022-12-25T15:23:30.635Z,11.88
2022-12-25T15:25:56.769Z,12.13
2022-12-25T15:28:23.002Z,13.20
2022-12-25T15:30:49.969Z,12.45
2022-12-25T15:33:18.537Z,13.82
2022-12-25T15:35:45.700Z,13.38
2022-12-25T15:38:13.253Z,13.07
2022-12-25T15:40:40.679Z,13.52
2022-12-25T15:43:14.480Z,14.75
2022-12-25T15:45:53.976Z,15.70
2022-12-25T15:48:20.141Z,14.90
2022-12-25T15:50:46.869Z,15.02
2022-12-25T15:53:13.066Z,15.32
2022-12-25T15:55:39.382Z,14.30
2022-12-25T15:58:05.504Z,16.30
2022-12-25T16:00:31.706Z,15.68
2022-12-25T16:02:58.075Z,15.73
2022-12-25T16:05:24.375Z,16.20
2022-12-25T16:07:50.565Z,16.70
2022-12-25T16:10:19.462Z,16.30
2022-12-25T16:12:46.073Z,18.10
2022-12-25T16:15:13.753Z,16.15
2022-12-25T16:17:39.883Z,15.85
2022-12-25T16:20:06.909Z,15.82
2022-12-25T16:22:39.708Z,17.05
2022-12-25T16:25:12.515Z,16.65
2022-12-25T16:27:38.643Z,16.08
2022-12-25T16:30:05.309Z,16.00
2022-12-25T16:32:31.479Z,16.70
2022-12-25T16:34:57.591Z,16.05
2022-12-25T16:37:24.019Z,16.20
2022-12-25T16:39:50.126Z,15.05
2022-12-25T16:42:16.285Z,16.15
2022-12-25T16:44:42.417Z,15.18
2022-12-25T16:47:08.560Z,15.73
2022-12-25T16:49:35.245Z,16.58
2022-12-25T16:52:01.365Z,15.07
2022-12-25T16:54:27.501Z,16.35
2022-12-25T16:56:53.629Z,15.50
2022-12-25T16:59:19.749Z,15.15
2022-12-25T17:01:45.989Z,15.25
2022-12-25T17:04:12.263Z,15.35
2022-12-25T17:06:38.557Z,15.60
2022-12-25T17:09:05.110Z,15.88
2022-12-25T17:11:32.013Z,16.33
2022-12-25T17:14:02.152Z,16.15
2022-12-25T17:16:31.088Z,16.13
2022-12-25T17:19:01.496Z,17.05
2022-12-25T17:21:28.786Z,15.88
2022-12-25T17:24:01.666Z,16.65
2022-12-25T17:26:30.035Z,15.82
2022-12-25T17:28:56.468Z,16.20
2022-12-25T17:31:23.277Z,17.58
2022-12-25T17:33:49.520Z,16.52
2022-12-25T17:36:18.383Z,16.75
2022-12-25T17:38:44.920Z,16.92
2022-12-25T17:41:13.436Z,15.73
2022-12-25T17:43:42.145Z,16.58
2022-12-25T17:46:11.903Z,16.73
2022-12-25T17:48:38.384Z,15.23
2022-12-25T17:51:06.488Z,15.93
2022-12-25T17:53:35.174Z,16.10
2022-12-25T17:56:01.287Z,16.23
2022-12-25T17:58:27.720Z,17.13
2022-12-25T18:00:54.689Z,17.38
2022-12-25T18:03:21.641Z,16.33
2022-12-25T18:05:48.516Z,17.30
2022-12-25T18:08:15.181Z,17.92
2022-12-25T18:10:43.450Z,17.48
2022-12-25T18:13:11.534Z,16.38
2022-12-25T18:15:41.228Z,16.25
2022-12-25T18:18:08.348Z,15.23
2022-12-25T18:20:39.959Z,14.60
2022-12-25T18:23:06.468Z,17.58
2022-12-25T18:25:33.822Z,17.10
2022-12-25T18:28:02.721Z,17.27
2022-12-25T18:30:29.092Z,18.25
2022-12-25T18:32:55.446Z,15.65
2022-12-25T18:35:21.626Z,16.33
2022-12-25T18:37:48.249Z,17.58
2022-12-25T18:40:14.427Z,15.02
2022-12-25T18:42:40.571Z,15.02
2022-12-25T18:45:14.929Z,15.85
2022-12-25T18:47:41.252Z,16.67
2022-12-25T18:50:08.753Z,16.85
2022-12-25T18:52:49.554Z,15.60
2022-12-25T18:55:17.423Z,15.73
2022-12-25T18:57:43.588Z,15.15
2022-12-25T19:00:10.138Z,14.63
2022-12-25T19:02:36.381Z,15.43
2022-12-25T19:05:02.530Z,16.48
2022-12-25T19:07:28.709Z,14.30
2022-12-25T19:09:54.836Z,14.80
2022-12-25T19:12:20.987Z,14.18
2022-12-25T19:14:48.379Z,13.75
2022-12-25T19:17:15.182Z,14.27
2022-12-25T19:19:41.306Z,13.95
2022-12-25T19:22:07.669Z,14.27
2022-12-25T19:24:34.372Z,12.85
2022-12-25T19:27:00.500Z,13.95
2022-12-25T19:29:26.622Z,14.93
2022-12-25T19:31:53.328Z,12.27
2022-12-25T19:34:20.358Z,13.18
2022-12-25T19:36:46.483Z,13.02
2022-12-25T19:39:13.211Z,14.30
2022-12-25T19:41:39.761Z,12.75
2022-12-25T19:44:06.406Z,12.68
2022-12-25T19:46:35.936Z,13.27
2022-12-25T19:49:04.567Z,13.02
2022-12-25T19:51:33.421Z,12.10
2022-12-25T19:54:00.407Z,12.70
2022-12-25T19:56:27.859Z,12.60
2022-12-25T19:58:54.741Z,12.07
2022-12-25T20:01:22.968Z,12.35
2022-12-25T20:03:49.665Z,12.55
2022-12-25T20:06:20.084Z,12.05
2022-12-25T20:08:47.333Z,11.90
2022-12-25T20:11:13.581Z,12.35
2022-12-25T20:13:39.710Z,12.45
2022-12-25T20:16:08.978Z,12.13
2022-12-25T20:18:35.157Z,11.95
2022-12-25T20:21:07.039Z,12.43
2022-12-25T20:23:33.642Z,12.75
2022-12-25T20:26:01.265Z,12.52
2022-12-25T20:28:32.162Z,13.77
2022-12-25T20:30:58.283Z,13.65
2022-12-25T20:33:25.121Z,13.20
2022-12-25T20:35:51.426Z,13.48
2022-12-25T20:38:18.029Z,12.57
2022-12-25T20:41:24.459Z,12.55
2022-12-25T20:43:31.157Z,11.75
2022-12-25T20:45:57.353Z,15.27
2022-12-25T20:48:23.831Z,13.77
2022-12-25T20:50:50.378Z,12.90
2022-12-25T20:53:17.436Z,12.82
2022-12-25T20:55:48.500Z,12.45
2022-12-25T20:58:16.699Z,12.75
2022-12-25T21:00:44.494Z,12.95
2022-12-25T21:03:11.523Z,13.45
2022-12-25T21:05:49.815Z,12.40
2022-12-25T21:08:18.080Z,11.80
2022-12-25T21:10:46.270Z,12.70
2022-12-25T21:13:12.421Z,12.02
2022-12-25T21:15:44.011Z,12.18
2022-12-25T21:18:10.816Z,11.38
2022-12-25T21:20:37.016Z,12.30
2022-12-25T21:23:03.146Z,12.20
2022-12-25T21:25:29.268Z,12.40
2022-12-25T21:27:55.412Z,11.63
2022-12-25T21:30:21.576Z,12.32
2022-12-25T21:33:06.184Z,11.82
2022-12-25T21:35:36.159Z,11.63
2022-12-25T21:38:02.311Z,12.35
2022-12-25T21:40:28.427Z,11.50
2022-12-25T21:42:54.564Z,12.02
2022-12-25T21:45:20.685Z,11.98
2022-12-25T21:48:01.643Z,11.77
2022-12-25T21:50:47.767Z,12.20
2022-12-25T21:53:19.987Z,12.05
2022-12-25T21:55:56.966Z,10.98
2022-12-25T21:58:23.421Z,11.23
2022-12-25T22:00:49.629Z,11.10
2022-12-25T22:03:15.818Z,12.23
2022-12-25T22:06:00.730Z,12.38
2022-12-25T22:08:31.542Z,11.02
2022-12-25T22:10:58.621Z,10.50
2022-12-25T22:13:43.385Z,10.90
2022-12-25T22:16:28.380Z,12.30
2022-12-25T22:19:13.431Z,11.47
2022-12-25T22:21:39.607Z,11.93
2022-12-25T22:24:08.186Z,11.27
2022-12-25T22:26:35.120Z,10.90
2022-12-25T22:29:01.681Z,11.20
2022-12-25T22:31:28.084Z,10.45
2022-12-25T22:33:55.371Z,11.65
2022-12-25T22:36:21.718Z,11.45
2022-12-25T22:38:47.851Z,10.65
2022-12-25T22:41:13.964Z,10.45
2022-12-25T22:44:15.225Z,12.07
2022-12-25T22:46:27.242Z,10.60
2022-12-25T22:48:53.436Z,11.23
2022-12-25T22:51:19.556Z,10.30
2022-12-25T22:53:45.691Z,11.10
2022-12-25T22:56:11.809Z,10.77
2022-12-25T22:58:37.944Z,11.32
2022-12-25T23:01:07.996Z,11.18
2022-12-25T23:03:34.230Z,10.63
2022-12-25T23:06:00.447Z,10.13
2022-12-25T23:08:26.577Z,10.30
2022-12-25T23:10:52.721Z,10.75
2022-12-25T23:13:37.706Z,10.90
2022-12-25T23:16:04.733Z,10.07
2022-12-25T23:18:49.351Z,10.10
2022-12-25T23:21:36.120Z,10.15
2022-12-25T23:24:21.626Z,10.85
2022-12-25T23:26:47.818Z,11.38
2022-12-25T23:29:34.216Z,10.77
2022-12-25T23:32:00.362Z,10.77
2022-12-25T23:34:26.588Z,10.50
2022-12-25T23:36:52.705Z,10.65
2022-12-25T23:39:18.871Z,10.15
2022-12-25T23:41:46.664Z,10.15
2022-12-25T23:44:13.862Z,10.55
2022-12-25T23:46:40.819Z,10.35
2022-12-25T23:49:07.771Z,10.18
2022-12-25T23:51:38.664Z,10.43
2022-12-25T23:54:08.227Z,9.77
2022-12-25T23:56:34.392Z,10.23
2022-12-25T23:59:01.944Z,10.98
